sensor_id;sensor_type;location;lat;lon;timestamp;temperature;humidity
3860;DHT22;1945;52.036;8.614;2023-04-25T00:00:44;6.90;99.90
3860;DHT22;1945;52.036;8.614;2023-04-25T00:03:11;6.90;87.70
3860;DHT22;1945;52.036;8.614;2023-04-25T00:05:39;6.90;99.90
3860;DHT22;1945;52.036;8.614;2023-04-25T00:08:08;6.90;99.90
3860;DHT22;1945;52.036;8.614;2023-04-25T00:10:34;6.90;52.00
3860;DHT22;1945;52.036;8.614;2023-04-25T00:13:01;6.90;99.90
3860;DHT22;1945;52.036;8.614;2023-04-25T00:15:28;7.20;99.90
3860;DHT22;1945;52.036;8.614;2023-04-25T00:17:56;6.90;99.90
3860;DHT22;1945;52.036;8.614;2023-04-25T00:20:23;7.30;99.90
3860;DHT22;1945;52.036;8.614;2023-04-25T00:22:50;6.90;99.90
3860;DHT22;1945;52.036;8.614;2023-04-25T00:25:19;6.90;99.90
3860;DHT22;1945;52.036;8.614;2023-04-25T00:27:46;6.90;99.90
3860;DHT22;1945;52.036;8.614;2023-04-25T00:30:14;6.80;99.90
3860;DHT22;1945;52.036;8.614;2023-04-25T00:32:40;6.80;99.90
3860;DHT22;1945;52.036;8.614;2023-04-25T00:35:08;6.80;99.90
3860;DHT22;1945;52.036;8.614;2023-04-25T00:37:35;6.80;99.90
3860;DHT22;1945;52.036;8.614;2023-04-25T00:40:02;6.70;99.90
3860;DHT22;1945;52.036;8.614;2023-04-25T00:42:32;6.70;99.90
3860;DHT22;1945;52.036;8.614;2023-04-25T00:45:01;7.10;99.90
3860;DHT22;1945;52.036;8.614;2023-04-25T00:47:28;6.70;99.90
3860;DHT22;1945;52.036;8.614;2023-04-25T00:49:55;6.70;99.90
3860;DHT22;1945;52.036;8.614;2023-04-25T00:52:22;6.70;99.90
3860;DHT22;1945;52.036;8.614;2023-04-25T00:54:49;7.20;99.90
3860;DHT22;1945;52.036;8.614;2023-04-25T00:57:16;6.70;99.90
3860;DHT22;1945;52.036;8.614;2023-04-25T00:59:45;6.60;99.90
3860;DHT22;1945;52.036;8.614;2023-04-25T01:02:12;6.60;1.00
3860;DHT22;1945;52.036;8.614;2023-04-25T01:04:39;6.60;1.00
3860;DHT22;1945;52.036;8.614;2023-04-25T01:07:06;6.70;1.00
3860;DHT22;1945;52.036;8.614;2023-04-25T01:09:34;7.00;1.00
3860;DHT22;1945;52.036;8.614;2023-04-25T01:12:01;6.60;1.00
3860;DHT22;1945;52.036;8.614;2023-04-25T01:14:28;6.60;1.00
3860;DHT22;1945;52.036;8.614;2023-04-25T01:16:57;6.60;1.00
3860;DHT22;1945;52.036;8.614;2023-04-25T01:19:24;6.60;1.00
3860;DHT22;1945;52.036;8.614;2023-04-25T01:21:53;6.60;1.00
3860;DHT22;1945;52.036;8.614;2023-04-25T01:24:20;6.60;1.00
3860;DHT22;1945;52.036;8.614;2023-04-25T01:26:47;6.60;1.00
3860;DHT22;1945;52.036;8.614;2023-04-25T01:29:16;6.60;1.00
3860;DHT22;1945;52.036;8.614;2023-04-25T01:31:44;7.00;1.00
3860;DHT22;1945;52.036;8.614;2023-04-25T01:34:11;6.90;1.00
3860;DHT22;1945;52.036;8.614;2023-04-25T01:36:38;7.00;1.00
3860;DHT22;1945;52.036;8.614;2023-04-25T01:39:07;6.60;1.00
3860;DHT22;1945;52.036;8.614;2023-04-25T01:41:34;6.60;1.00
3860;DHT22;1945;52.036;8.614;2023-04-25T01:44:01;6.90;1.00
3860;DHT22;1945;52.036;8.614;2023-04-25T01:46:28;6.60;1.00
3860;DHT22;1945;52.036;8.614;2023-04-25T01:48:56;6.60;1.00
3860;DHT22;1945;52.036;8.614;2023-04-25T01:51:23;7.00;1.00
3860;DHT22;1945;52.036;8.614;2023-04-25T01:53:51;6.60;1.00
3860;DHT22;1945;52.036;8.614;2023-04-25T01:56:20;6.60;1.00
3860;DHT22;1945;52.036;8.614;2023-04-25T01:58:47;7.10;1.00
3860;DHT22;1945;52.036;8.614;2023-04-25T02:01:13;7.00;1.00
3860;DHT22;1945;52.036;8.614;2023-04-25T02:03:40;7.10;1.00
3860;DHT22;1945;52.036;8.614;2023-04-25T02:06:07;6.60;1.00
3860;DHT22;1945;52.036;8.614;2023-04-25T02:08:33;6.60;1.00
3860;DHT22;1945;52.036;8.614;2023-04-25T02:11:00;7.10;1.00
3860;DHT22;1945;52.036;8.614;2023-04-25T02:13:29;6.60;1.00
3860;DHT22;1945;52.036;8.614;2023-04-25T02:15:57;6.70;1.00
3860;DHT22;1945;52.036;8.614;2023-04-25T02:18:23;7.10;1.00
3860;DHT22;1945;52.036;8.614;2023-04-25T02:20:51;7.20;1.00
3860;DHT22;1945;52.036;8.614;2023-04-25T02:23:18;6.70;1.00
3860;DHT22;1945;52.036;8.614;2023-04-25T02:25:45;6.70;1.00
3860;DHT22;1945;52.036;8.614;2023-04-25T02:28:12;6.70;1.00
3860;DHT22;1945;52.036;8.614;2023-04-25T02:30:40;6.30;1.00
3860;DHT22;1945;52.036;8.614;2023-04-25T02:33:06;7.10;1.00
3860;DHT22;1945;52.036;8.614;2023-04-25T02:35:33;7.10;1.00
3860;DHT22;1945;52.036;8.614;2023-04-25T02:38:00;7.10;1.00
3860;DHT22;1945;52.036;8.614;2023-04-25T02:40:27;6.80;1.00
3860;DHT22;1945;52.036;8.614;2023-04-25T02:42:54;6.70;1.00
3860;DHT22;1945;52.036;8.614;2023-04-25T02:45:21;6.80;1.00
3860;DHT22;1945;52.036;8.614;2023-04-25T02:47:49;6.70;1.00
3860;DHT22;1945;52.036;8.614;2023-04-25T02:50:15;7.10;1.00
3860;DHT22;1945;52.036;8.614;2023-04-25T02:52:44;6.80;1.00
3860;DHT22;1945;52.036;8.614;2023-04-25T02:55:12;6.80;1.00
3860;DHT22;1945;52.036;8.614;2023-04-25T02:57:38;6.80;1.00
3860;DHT22;1945;52.036;8.614;2023-04-25T03:00:07;6.80;1.00
3860;DHT22;1945;52.036;8.614;2023-04-25T03:02:34;6.80;1.00
3860;DHT22;1945;52.036;8.614;2023-04-25T03:05:02;7.10;1.00
3860;DHT22;1945;52.036;8.614;2023-04-25T03:07:29;6.80;1.00
3860;DHT22;1945;52.036;8.614;2023-04-25T03:09:56;6.70;1.00
3860;DHT22;1945;52.036;8.614;2023-04-25T03:12:23;7.00;1.00
3860;DHT22;1945;52.036;8.614;2023-04-25T03:14:50;6.70;1.00
3860;DHT22;1945;52.036;8.614;2023-04-25T03:17:16;6.70;1.00
3860;DHT22;1945;52.036;8.614;2023-04-25T03:19:43;7.10;1.00
3860;DHT22;1945;52.036;8.614;2023-04-25T03:22:13;6.70;1.00
3860;DHT22;1945;52.036;8.614;2023-04-25T03:24:40;7.00;1.00
3860;DHT22;1945;52.036;8.614;2023-04-25T03:27:07;7.10;1.00
3860;DHT22;1945;52.036;8.614;2023-04-25T03:29:33;6.70;1.00
3860;DHT22;1945;52.036;8.614;2023-04-25T03:32:00;7.00;1.00
3860;DHT22;1945;52.036;8.614;2023-04-25T03:34:27;7.10;1.00
3860;DHT22;1945;52.036;8.614;2023-04-25T03:36:54;6.70;1.00
3860;DHT22;1945;52.036;8.614;2023-04-25T03:39:22;6.60;1.00
3860;DHT22;1945;52.036;8.614;2023-04-25T03:41:49;7.00;1.00
3860;DHT22;1945;52.036;8.614;2023-04-25T03:44:16;6.60;1.00
3860;DHT22;1945;52.036;8.614;2023-04-25T03:46:42;6.60;1.00
3860;DHT22;1945;52.036;8.614;2023-04-25T03:49:09;6.60;1.00
3860;DHT22;1945;52.036;8.614;2023-04-25T03:51:36;6.60;1.00
3860;DHT22;1945;52.036;8.614;2023-04-25T03:54:02;7.10;1.00
3860;DHT22;1945;52.036;8.614;2023-04-25T03:56:31;6.60;1.00
3860;DHT22;1945;52.036;8.614;2023-04-25T03:58:57;7.00;1.00
3860;DHT22;1945;52.036;8.614;2023-04-25T04:01:24;7.00;1.00
3860;DHT22;1945;52.036;8.614;2023-04-25T04:03:51;6.60;1.00
3860;DHT22;1945;52.036;8.614;2023-04-25T04:06:17;7.00;1.00
3860;DHT22;1945;52.036;8.614;2023-04-25T04:08:46;6.90;1.00
3860;DHT22;1945;52.036;8.614;2023-04-25T04:11:12;6.90;1.00
3860;DHT22;1945;52.036;8.614;2023-04-25T04:13:40;7.10;1.00
3860;DHT22;1945;52.036;8.614;2023-04-25T04:16:07;7.00;1.00
3860;DHT22;1945;52.036;8.614;2023-04-25T04:18:34;6.50;1.00
3860;DHT22;1945;52.036;8.614;2023-04-25T04:21:01;6.90;1.00
3860;DHT22;1945;52.036;8.614;2023-04-25T04:23:27;6.80;1.00
3860;DHT22;1945;52.036;8.614;2023-04-25T04:25:54;7.00;1.00
3860;DHT22;1945;52.036;8.614;2023-04-25T04:28:21;6.50;1.00
3860;DHT22;1945;52.036;8.614;2023-04-25T04:30:49;6.50;1.00
3860;DHT22;1945;52.036;8.614;2023-04-25T04:33:18;6.50;1.00
3860;DHT22;1945;52.036;8.614;2023-04-25T04:35:45;6.90;1.00
3860;DHT22;1945;52.036;8.614;2023-04-25T04:38:12;6.40;99.90
3860;DHT22;1945;52.036;8.614;2023-04-25T04:40:40;6.40;99.90
3860;DHT22;1945;52.036;8.614;2023-04-25T04:43:08;6.40;99.90
3860;DHT22;1945;52.036;8.614;2023-04-25T04:45:35;6.40;99.90
3860;DHT22;1945;52.036;8.614;2023-04-25T04:48:05;7.00;99.90
3860;DHT22;1945;52.036;8.614;2023-04-25T04:50:32;7.00;99.90
3860;DHT22;1945;52.036;8.614;2023-04-25T04:52:59;6.90;99.90
3860;DHT22;1945;52.036;8.614;2023-04-25T04:55:26;6.90;99.90
3860;DHT22;1945;52.036;8.614;2023-04-25T04:57:52;6.40;99.90
3860;DHT22;1945;52.036;8.614;2023-04-25T05:00:19;6.80;99.90
3860;DHT22;1945;52.036;8.614;2023-04-25T05:02:47;6.50;99.90
3860;DHT22;1945;52.036;8.614;2023-04-25T05:05:15;6.50;99.90
3860;DHT22;1945;52.036;8.614;2023-04-25T05:07:41;6.50;99.90
3860;DHT22;1945;52.036;8.614;2023-04-25T05:10:08;7.00;99.90
3860;DHT22;1945;52.036;8.614;2023-04-25T05:12:35;6.50;99.90
3860;DHT22;1945;52.036;8.614;2023-04-25T05:15:02;6.40;99.90
3860;DHT22;1945;52.036;8.614;2023-04-25T05:17:29;6.50;99.90
3860;DHT22;1945;52.036;8.614;2023-04-25T05:19:56;6.90;99.90
3860;DHT22;1945;52.036;8.614;2023-04-25T05:22:24;6.50;99.90
3860;DHT22;1945;52.036;8.614;2023-04-25T05:24:51;7.00;99.90
3860;DHT22;1945;52.036;8.614;2023-04-25T05:27:18;6.90;99.90
3860;DHT22;1945;52.036;8.614;2023-04-25T05:29:45;6.60;99.90
3860;DHT22;1945;52.036;8.614;2023-04-25T05:32:11;6.60;99.90
3860;DHT22;1945;52.036;8.614;2023-04-25T05:34:38;7.10;99.90
3860;DHT22;1945;52.036;8.614;2023-04-25T05:37:05;6.60;99.90
3860;DHT22;1945;52.036;8.614;2023-04-25T05:39:33;6.60;99.90
3860;DHT22;1945;52.036;8.614;2023-04-25T05:42:00;6.70;99.90
3860;DHT22;1945;52.036;8.614;2023-04-25T05:44:29;6.80;99.90
3860;DHT22;1945;52.036;8.614;2023-04-25T05:46:56;6.80;99.90
3860;DHT22;1945;52.036;8.614;2023-04-25T05:49:23;6.90;99.90
3860;DHT22;1945;52.036;8.614;2023-04-25T05:51:49;7.40;73.90
3860;DHT22;1945;52.036;8.614;2023-04-25T05:54:16;7.40;1.00
3860;DHT22;1945;52.036;8.614;2023-04-25T05:56:44;7.40;13.00
3860;DHT22;1945;52.036;8.614;2023-04-25T05:59:11;7.00;1.00
3860;DHT22;1945;52.036;8.614;2023-04-25T06:01:37;6.90;1.00
3860;DHT22;1945;52.036;8.614;2023-04-25T06:04:04;6.90;1.00
3860;DHT22;1945;52.036;8.614;2023-04-25T06:06:31;7.50;1.00
3860;DHT22;1945;52.036;8.614;2023-04-25T06:08:58;7.60;1.00
3860;DHT22;1945;52.036;8.614;2023-04-25T06:11:24;7.40;1.00
3860;DHT22;1945;52.036;8.614;2023-04-25T06:13:52;7.50;1.00
3860;DHT22;1945;52.036;8.614;2023-04-25T06:16:19;7.20;1.00
3860;DHT22;1945;52.036;8.614;2023-04-25T06:18:46;7.20;1.00
3860;DHT22;1945;52.036;8.614;2023-04-25T06:21:12;7.50;1.00
3860;DHT22;1945;52.036;8.614;2023-04-25T06:23:39;7.20;1.00
3860;DHT22;1945;52.036;8.614;2023-04-25T06:26:06;7.60;1.00
3860;DHT22;1945;52.036;8.614;2023-04-25T06:28:32;7.30;1.00
3860;DHT22;1945;52.036;8.614;2023-04-25T06:31:01;7.20;1.00
3860;DHT22;1945;52.036;8.614;2023-04-25T06:33:27;7.70;1.00
3860;DHT22;1945;52.036;8.614;2023-04-25T06:35:54;7.80;1.00
3860;DHT22;1945;52.036;8.614;2023-04-25T06:38:21;7.70;1.00
3860;DHT22;1945;52.036;8.614;2023-04-25T06:40:47;7.80;1.00
3860;DHT22;1945;52.036;8.614;2023-04-25T06:43:14;7.40;99.90
3860;DHT22;1945;52.036;8.614;2023-04-25T06:45:41;8.00;1.00
3860;DHT22;1945;52.036;8.614;2023-04-25T06:48:09;8.00;1.00
3860;DHT22;1945;52.036;8.614;2023-04-25T06:50:36;7.90;1.00
3860;DHT22;1945;52.036;8.614;2023-04-25T06:53:02;8.10;99.90
3860;DHT22;1945;52.036;8.614;2023-04-25T06:55:29;7.70;99.90
3860;DHT22;1945;52.036;8.614;2023-04-25T06:57:56;8.20;99.90
3860;DHT22;1945;52.036;8.614;2023-04-25T07:00:23;7.90;99.90
3860;DHT22;1945;52.036;8.614;2023-04-25T07:02:50;8.20;99.90
3860;DHT22;1945;52.036;8.614;2023-04-25T07:05:18;8.20;99.90
3860;DHT22;1945;52.036;8.614;2023-04-25T07:07:45;8.10;99.90
3860;DHT22;1945;52.036;8.614;2023-04-25T07:10:14;7.90;99.90
3860;DHT22;1945;52.036;8.614;2023-04-25T07:12:41;7.90;99.90
3860;DHT22;1945;52.036;8.614;2023-04-25T07:15:09;7.90;99.90
3860;DHT22;1945;52.036;8.614;2023-04-25T07:17:36;8.00;99.90
3860;DHT22;1945;52.036;8.614;2023-04-25T07:20:04;7.90;99.90
3860;DHT22;1945;52.036;8.614;2023-04-25T07:22:34;8.00;99.90
3860;DHT22;1945;52.036;8.614;2023-04-25T07:25:01;8.40;99.90
3860;DHT22;1945;52.036;8.614;2023-04-25T07:27:29;8.20;99.90
3860;DHT22;1945;52.036;8.614;2023-04-25T07:29:56;8.80;99.90
3860;DHT22;1945;52.036;8.614;2023-04-25T07:32:23;8.40;99.90
3860;DHT22;1945;52.036;8.614;2023-04-25T07:34:49;8.90;99.90
3860;DHT22;1945;52.036;8.614;2023-04-25T07:37:16;8.30;1.00
3860;DHT22;1945;52.036;8.614;2023-04-25T07:39:45;8.40;99.90
3860;DHT22;1945;52.036;8.614;2023-04-25T07:42:12;8.90;99.90
3860;DHT22;1945;52.036;8.614;2023-04-25T07:44:39;8.60;99.90
3860;DHT22;1945;52.036;8.614;2023-04-25T07:47:07;9.20;99.90
3860;DHT22;1945;52.036;8.614;2023-04-25T07:49:33;8.90;19.50
3860;DHT22;1945;52.036;8.614;2023-04-25T07:52:01;9.00;1.00
3860;DHT22;1945;52.036;8.614;2023-04-25T07:54:28;9.10;1.00
3860;DHT22;1945;52.036;8.614;2023-04-25T07:56:56;9.00;1.00
3860;DHT22;1945;52.036;8.614;2023-04-25T07:59:23;9.00;1.00
3860;DHT22;1945;52.036;8.614;2023-04-25T08:01:49;8.90;1.00
3860;DHT22;1945;52.036;8.614;2023-04-25T08:04:16;9.00;1.00
3860;DHT22;1945;52.036;8.614;2023-04-25T08:06:43;9.40;1.00
3860;DHT22;1945;52.036;8.614;2023-04-25T08:09:11;9.40;1.00
3860;DHT22;1945;52.036;8.614;2023-04-25T08:11:37;9.90;1.00
3860;DHT22;1945;52.036;8.614;2023-04-25T08:14:05;10.10;1.00
3860;DHT22;1945;52.036;8.614;2023-04-25T08:16:32;10.00;99.90
3860;DHT22;1945;52.036;8.614;2023-04-25T08:18:59;10.10;99.90
3860;DHT22;1945;52.036;8.614;2023-04-25T08:21:26;10.20;1.00
3860;DHT22;1945;52.036;8.614;2023-04-25T08:23:53;10.20;1.00
3860;DHT22;1945;52.036;8.614;2023-04-25T08:26:20;10.30;99.90
3860;DHT22;1945;52.036;8.614;2023-04-25T08:28:46;10.00;99.90
3860;DHT22;1945;52.036;8.614;2023-04-25T08:31:15;9.90;99.90
3860;DHT22;1945;52.036;8.614;2023-04-25T08:33:42;9.90;99.90
3860;DHT22;1945;52.036;8.614;2023-04-25T08:36:09;10.30;99.90
3860;DHT22;1945;52.036;8.614;2023-04-25T08:38:36;9.90;99.90
3860;DHT22;1945;52.036;8.614;2023-04-25T08:41:03;9.90;99.90
3860;DHT22;1945;52.036;8.614;2023-04-25T08:43:32;9.80;99.90
3860;DHT22;1945;52.036;8.614;2023-04-25T08:46:00;9.90;99.90
3860;DHT22;1945;52.036;8.614;2023-04-25T08:48:32;10.10;99.90
3860;DHT22;1945;52.036;8.614;2023-04-25T08:51:01;10.10;99.90
3860;DHT22;1945;52.036;8.614;2023-04-25T08:53:31;10.00;99.90
3860;DHT22;1945;52.036;8.614;2023-04-25T08:55:59;10.20;99.90
3860;DHT22;1945;52.036;8.614;2023-04-25T08:58:27;10.10;99.90
3860;DHT22;1945;52.036;8.614;2023-04-25T09:00:56;10.30;99.90
3860;DHT22;1945;52.036;8.614;2023-04-25T09:03:23;10.30;99.90
3860;DHT22;1945;52.036;8.614;2023-04-25T09:05:51;10.60;99.90
3860;DHT22;1945;52.036;8.614;2023-04-25T09:08:18;10.60;99.90
3860;DHT22;1945;52.036;8.614;2023-04-25T09:10:44;10.30;99.90
3860;DHT22;1945;52.036;8.614;2023-04-25T09:13:13;10.40;79.90
3860;DHT22;1945;52.036;8.614;2023-04-25T09:15:48;10.50;99.90
3860;DHT22;1945;52.036;8.614;2023-04-25T09:18:22;10.60;97.70
3860;DHT22;1945;52.036;8.614;2023-04-25T09:20:52;10.40;1.00
3860;DHT22;1945;52.036;8.614;2023-04-25T09:23:20;11.20;1.00
3860;DHT22;1945;52.036;8.614;2023-04-25T09:25:47;11.20;1.00
3860;DHT22;1945;52.036;8.614;2023-04-25T09:28:15;11.50;1.00
3860;DHT22;1945;52.036;8.614;2023-04-25T09:30:42;11.60;1.00
3860;DHT22;1945;52.036;8.614;2023-04-25T09:33:10;11.10;1.00
3860;DHT22;1945;52.036;8.614;2023-04-25T09:35:38;11.10;1.00
3860;DHT22;1945;52.036;8.614;2023-04-25T09:38:10;11.30;22.00
3860;DHT22;1945;52.036;8.614;2023-04-25T09:40:42;10.70;1.00
3860;DHT22;1945;52.036;8.614;2023-04-25T09:43:09;10.70;1.00
3860;DHT22;1945;52.036;8.614;2023-04-25T09:45:45;10.40;1.00
3860;DHT22;1945;52.036;8.614;2023-04-25T09:48:17;10.10;1.00
3860;DHT22;1945;52.036;8.614;2023-04-25T09:50:43;9.90;1.00
3860;DHT22;1945;52.036;8.614;2023-04-25T09:53:12;10.00;1.00
3860;DHT22;1945;52.036;8.614;2023-04-25T09:55:39;9.80;1.00
3860;DHT22;1945;52.036;8.614;2023-04-25T09:58:09;9.80;1.00
3860;DHT22;1945;52.036;8.614;2023-04-25T10:00:38;9.70;1.00
3860;DHT22;1945;52.036;8.614;2023-04-25T10:03:05;9.80;1.00
3860;DHT22;1945;52.036;8.614;2023-04-25T10:05:32;9.90;1.00
3860;DHT22;1945;52.036;8.614;2023-04-25T10:08:02;10.20;1.00
3860;DHT22;1945;52.036;8.614;2023-04-25T10:10:31;9.90;1.00
3860;DHT22;1945;52.036;8.614;2023-04-25T10:13:03;9.90;1.00
3860;DHT22;1945;52.036;8.614;2023-04-25T10:15:30;9.90;1.00
3860;DHT22;1945;52.036;8.614;2023-04-25T10:17:58;10.10;1.00
3860;DHT22;1945;52.036;8.614;2023-04-25T10:20:25;9.80;1.00
3860;DHT22;1945;52.036;8.614;2023-04-25T10:22:54;9.40;1.00
3860;DHT22;1945;52.036;8.614;2023-04-25T10:25:23;9.30;1.00
3860;DHT22;1945;52.036;8.614;2023-04-25T10:27:52;9.30;99.90
3860;DHT22;1945;52.036;8.614;2023-04-25T10:30:19;9.50;99.90
3860;DHT22;1945;52.036;8.614;2023-04-25T10:32:46;9.40;99.90
3860;DHT22;1945;52.036;8.614;2023-04-25T10:35:16;10.20;99.90
3860;DHT22;1945;52.036;8.614;2023-04-25T10:38:04;9.80;99.90
3860;DHT22;1945;52.036;8.614;2023-04-25T10:40:31;10.10;99.90
3860;DHT22;1945;52.036;8.614;2023-04-25T10:45:59;10.10;99.90
3860;DHT22;1945;52.036;8.614;2023-04-25T10:48:26;10.20;99.90
3860;DHT22;1945;52.036;8.614;2023-04-25T10:51:07;10.30;20.00
3860;DHT22;1945;52.036;8.614;2023-04-25T10:53:33;10.60;96.00
3860;DHT22;1945;52.036;8.614;2023-04-25T10:56:00;10.70;99.90
3860;DHT22;1945;52.036;8.614;2023-04-25T10:58:35;10.90;99.90
3860;DHT22;1945;52.036;8.614;2023-04-25T11:01:03;11.20;99.90
3860;DHT22;1945;52.036;8.614;2023-04-25T11:03:30;11.70;99.90
3860;DHT22;1945;52.036;8.614;2023-04-25T11:05:59;11.30;24.30
3860;DHT22;1945;52.036;8.614;2023-04-25T11:08:35;10.60;61.60
3860;DHT22;1945;52.036;8.614;2023-04-25T11:11:03;10.70;99.90
3860;DHT22;1945;52.036;8.614;2023-04-25T11:13:30;10.60;77.40
3860;DHT22;1945;52.036;8.614;2023-04-25T11:15:57;10.80;99.90
3860;DHT22;1945;52.036;8.614;2023-04-25T11:18:28;10.30;99.90
3860;DHT22;1945;52.036;8.614;2023-04-25T11:20:55;10.40;99.90
3860;DHT22;1945;52.036;8.614;2023-04-25T11:23:22;10.10;28.30
3860;DHT22;1945;52.036;8.614;2023-04-25T11:25:49;9.70;99.90
3860;DHT22;1945;52.036;8.614;2023-04-25T11:28:20;9.40;99.90
3860;DHT22;1945;52.036;8.614;2023-04-25T11:30:48;9.30;1.00
3860;DHT22;1945;52.036;8.614;2023-04-25T11:33:15;9.20;1.00
3860;DHT22;1945;52.036;8.614;2023-04-25T11:35:45;9.10;1.00
3860;DHT22;1945;52.036;8.614;2023-04-25T11:38:12;9.20;1.00
3860;DHT22;1945;52.036;8.614;2023-04-25T11:40:39;9.70;1.00
3860;DHT22;1945;52.036;8.614;2023-04-25T11:43:06;9.90;1.00
3860;DHT22;1945;52.036;8.614;2023-04-25T11:45:33;10.10;1.00
3860;DHT22;1945;52.036;8.614;2023-04-25T11:48:01;10.70;1.00
3860;DHT22;1945;52.036;8.614;2023-04-25T11:50:29;10.10;99.90
3860;DHT22;1945;52.036;8.614;2023-04-25T11:53:00;10.10;99.90
3860;DHT22;1945;52.036;8.614;2023-04-25T11:55:30;10.00;1.00
3860;DHT22;1945;52.036;8.614;2023-04-25T11:57:59;10.00;1.00
3860;DHT22;1945;52.036;8.614;2023-04-25T12:00:26;9.50;99.90
3860;DHT22;1945;52.036;8.614;2023-04-25T12:02:55;9.40;1.00
3860;DHT22;1945;52.036;8.614;2023-04-25T12:05:24;9.20;1.00
3860;DHT22;1945;52.036;8.614;2023-04-25T12:07:52;9.30;1.00
3860;DHT22;1945;52.036;8.614;2023-04-25T12:10:20;9.50;1.00
3860;DHT22;1945;52.036;8.614;2023-04-25T12:12:47;9.80;1.00
3860;DHT22;1945;52.036;8.614;2023-04-25T12:15:16;9.90;1.00
3860;DHT22;1945;52.036;8.614;2023-04-25T12:17:45;9.90;99.90
3860;DHT22;1945;52.036;8.614;2023-04-25T12:20:14;10.10;1.00
3860;DHT22;1945;52.036;8.614;2023-04-25T12:22:41;10.20;1.00
3860;DHT22;1945;52.036;8.614;2023-04-25T12:25:10;10.50;1.00
3860;DHT22;1945;52.036;8.614;2023-04-25T12:27:39;10.50;1.00
3860;DHT22;1945;52.036;8.614;2023-04-25T12:30:08;10.60;99.90
3860;DHT22;1945;52.036;8.614;2023-04-25T12:32:36;10.40;99.90
3860;DHT22;1945;52.036;8.614;2023-04-25T12:35:03;10.40;99.90
3860;DHT22;1945;52.036;8.614;2023-04-25T12:37:30;10.30;99.90
3860;DHT22;1945;52.036;8.614;2023-04-25T12:39:57;10.00;99.90
3860;DHT22;1945;52.036;8.614;2023-04-25T12:42:23;10.30;99.90
3860;DHT22;1945;52.036;8.614;2023-04-25T12:44:51;10.00;99.90
3860;DHT22;1945;52.036;8.614;2023-04-25T12:47:18;10.10;99.90
3860;DHT22;1945;52.036;8.614;2023-04-25T12:49:45;10.40;99.90
3860;DHT22;1945;52.036;8.614;2023-04-25T12:52:11;10.70;99.90
3860;DHT22;1945;52.036;8.614;2023-04-25T12:54:38;11.00;99.90
3860;DHT22;1945;52.036;8.614;2023-04-25T12:57:05;11.50;95.00
3860;DHT22;1945;52.036;8.614;2023-04-25T12:59:32;11.30;99.90
3860;DHT22;1945;52.036;8.614;2023-04-25T13:02:00;11.40;99.90
3860;DHT22;1945;52.036;8.614;2023-04-25T13:04:27;11.60;99.90
3860;DHT22;1945;52.036;8.614;2023-04-25T13:06:53;11.90;99.90
3860;DHT22;1945;52.036;8.614;2023-04-25T13:09:20;11.70;99.90
3860;DHT22;1945;52.036;8.614;2023-04-25T13:11:47;11.70;99.90
3860;DHT22;1945;52.036;8.614;2023-04-25T13:14:13;12.10;99.90
3860;DHT22;1945;52.036;8.614;2023-04-25T13:16:40;11.50;99.90
3860;DHT22;1945;52.036;8.614;2023-04-25T13:19:08;11.20;99.90
3860;DHT22;1945;52.036;8.614;2023-04-25T13:21:37;11.00;1.00
3860;DHT22;1945;52.036;8.614;2023-04-25T13:24:04;10.80;1.00
3860;DHT22;1945;52.036;8.614;2023-04-25T13:26:31;10.10;99.90
3860;DHT22;1945;52.036;8.614;2023-04-25T13:28:57;9.40;1.00
3860;DHT22;1945;52.036;8.614;2023-04-25T13:31:25;8.60;1.00
3860;DHT22;1945;52.036;8.614;2023-04-25T13:33:52;8.40;99.90
3860;DHT22;1945;52.036;8.614;2023-04-25T13:36:20;8.30;99.90
3860;DHT22;1945;52.036;8.614;2023-04-25T13:38:47;8.10;99.90
3860;DHT22;1945;52.036;8.614;2023-04-25T13:41:14;8.00;99.90
3860;DHT22;1945;52.036;8.614;2023-04-25T13:43:44;8.40;99.90
3860;DHT22;1945;52.036;8.614;2023-04-25T13:46:12;7.90;99.90
3860;DHT22;1945;52.036;8.614;2023-04-25T13:48:40;8.00;99.90
3860;DHT22;1945;52.036;8.614;2023-04-25T13:51:14;8.50;99.90
3860;DHT22;1945;52.036;8.614;2023-04-25T13:53:44;8.90;1.00
3860;DHT22;1945;52.036;8.614;2023-04-25T13:56:11;9.00;99.90
3860;DHT22;1945;52.036;8.614;2023-04-25T13:58:38;9.30;99.90
3860;DHT22;1945;52.036;8.614;2023-04-25T14:01:07;9.40;99.90
3860;DHT22;1945;52.036;8.614;2023-04-25T14:03:33;9.80;99.90
3860;DHT22;1945;52.036;8.614;2023-04-25T14:06:00;9.50;1.00
3860;DHT22;1945;52.036;8.614;2023-04-25T14:08:27;9.40;99.90
3860;DHT22;1945;52.036;8.614;2023-04-25T14:10:55;9.40;99.90
3860;DHT22;1945;52.036;8.614;2023-04-25T14:13:22;9.40;99.90
3860;DHT22;1945;52.036;8.614;2023-04-25T14:15:49;9.50;99.90
3860;DHT22;1945;52.036;8.614;2023-04-25T14:18:17;9.60;1.00
3860;DHT22;1945;52.036;8.614;2023-04-25T14:20:44;9.70;99.90
3860;DHT22;1945;52.036;8.614;2023-04-25T14:23:10;9.80;99.90
3860;DHT22;1945;52.036;8.614;2023-04-25T14:25:37;10.00;1.00
3860;DHT22;1945;52.036;8.614;2023-04-25T14:28:05;10.10;43.30
3860;DHT22;1945;52.036;8.614;2023-04-25T14:30:32;10.10;1.00
3860;DHT22;1945;52.036;8.614;2023-04-25T14:32:59;10.30;1.00
3860;DHT22;1945;52.036;8.614;2023-04-25T14:35:28;10.50;1.00
3860;DHT22;1945;52.036;8.614;2023-04-25T14:37:55;10.50;99.90
3860;DHT22;1945;52.036;8.614;2023-04-25T14:40:22;10.40;1.00
3860;DHT22;1945;52.036;8.614;2023-04-25T14:42:48;10.20;99.90
3860;DHT22;1945;52.036;8.614;2023-04-25T14:45:18;10.20;99.90
3860;DHT22;1945;52.036;8.614;2023-04-25T14:47:45;10.00;9.80
3860;DHT22;1945;52.036;8.614;2023-04-25T14:50:11;10.00;1.00
3860;DHT22;1945;52.036;8.614;2023-04-25T14:52:38;10.10;1.00
3860;DHT22;1945;52.036;8.614;2023-04-25T14:55:05;10.10;1.00
3860;DHT22;1945;52.036;8.614;2023-04-25T14:57:32;10.00;1.00
3860;DHT22;1945;52.036;8.614;2023-04-25T14:59:59;10.00;1.00
3860;DHT22;1945;52.036;8.614;2023-04-25T15:02:27;10.40;1.00
3860;DHT22;1945;52.036;8.614;2023-04-25T15:04:54;10.10;1.00
3860;DHT22;1945;52.036;8.614;2023-04-25T15:07:22;10.20;1.20
3860;DHT22;1945;52.036;8.614;2023-04-25T15:09:49;10.30;12.50
3860;DHT22;1945;52.036;8.614;2023-04-25T15:12:15;10.80;54.20
3860;DHT22;1945;52.036;8.614;2023-04-25T15:14:42;10.40;16.10
3860;DHT22;1945;52.036;8.614;2023-04-25T15:17:09;10.20;1.00
3860;DHT22;1945;52.036;8.614;2023-04-25T15:19:37;10.10;99.90
3860;DHT22;1945;52.036;8.614;2023-04-25T15:22:03;10.20;99.90
3860;DHT22;1945;52.036;8.614;2023-04-25T15:24:32;9.50;1.00
3860;DHT22;1945;52.036;8.614;2023-04-25T15:26:59;9.80;1.00
3860;DHT22;1945;52.036;8.614;2023-04-25T15:29:26;9.60;1.00
3860;DHT22;1945;52.036;8.614;2023-04-25T15:31:52;9.70;1.00
3860;DHT22;1945;52.036;8.614;2023-04-25T15:34:19;9.60;99.90
3860;DHT22;1945;52.036;8.614;2023-04-25T15:36:47;9.60;99.90
3860;DHT22;1945;52.036;8.614;2023-04-25T15:39:14;9.80;99.90
3860;DHT22;1945;52.036;8.614;2023-04-25T15:41:41;9.90;99.90
3860;DHT22;1945;52.036;8.614;2023-04-25T15:44:08;9.90;99.90
3860;DHT22;1945;52.036;8.614;2023-04-25T15:46:37;9.70;99.90
3860;DHT22;1945;52.036;8.614;2023-04-25T15:49:04;9.70;99.90
3860;DHT22;1945;52.036;8.614;2023-04-25T15:51:31;9.70;99.90
3860;DHT22;1945;52.036;8.614;2023-04-25T15:53:59;9.60;99.90
3860;DHT22;1945;52.036;8.614;2023-04-25T15:56:27;9.60;99.90
3860;DHT22;1945;52.036;8.614;2023-04-25T15:58:53;9.40;99.90
3860;DHT22;1945;52.036;8.614;2023-04-25T16:01:20;9.40;99.90
3860;DHT22;1945;52.036;8.614;2023-04-25T16:03:49;9.50;99.90
3860;DHT22;1945;52.036;8.614;2023-04-25T16:06:16;9.40;99.90
3860;DHT22;1945;52.036;8.614;2023-04-25T16:08:43;9.30;99.90
3860;DHT22;1945;52.036;8.614;2023-04-25T16:11:11;9.30;99.90
3860;DHT22;1945;52.036;8.614;2023-04-25T16:13:39;9.40;99.90
3860;DHT22;1945;52.036;8.614;2023-04-25T16:16:06;9.40;99.90
3860;DHT22;1945;52.036;8.614;2023-04-25T16:18:33;9.70;99.90
3860;DHT22;1945;52.036;8.614;2023-04-25T16:20:59;9.00;99.90
3860;DHT22;1945;52.036;8.614;2023-04-25T16:23:26;8.70;99.90
3860;DHT22;1945;52.036;8.614;2023-04-25T16:25:53;8.60;99.90